YRADC LRBC-LRBC
Flight info
| Callsign | YRADC |
|---|---|
| Flight time | 0h 44m |
| Altitude | 3500 |
| Route | LRBC DCT LRBC |
| Aircraft | TBM9/L-VGDW/C |
Departure
| Time | 2026-04-10 21:57 |
|---|---|
| Airport | Bacău George Enescu International Airport (LRBC) |
Arrival
| Time | 2026-04-10 22:41 |
|---|---|
| Airport | Bacău George Enescu International Airport (LRBC) |
| Time | Latitude | Longitude | Altitude | Speed | Heading |
|---|---|---|---|---|---|
| 2026-04-10 21:53 | 46.53158 | 26.91003 | 609 ft | 0 kts | 74° |
| 2026-04-10 21:55 | 46.53164 | 26.90996 | 619 ft | 2 kts | 194° |
| 2026-04-10 21:55 | 46.53137 | 26.90958 | 609 ft | 19 kts | 203° |
| 2026-04-10 21:55 | 46.53089 | 26.90904 | 614 ft | 9 kts | 0° |
| 2026-04-10 21:56 | 46.53285 | 26.90830 | 617 ft | 22 kts | 338° |
| 2026-04-10 21:56 | 46.53279 | 26.90662 | 611 ft | 24 kts | 257° |
| 2026-04-10 21:56 | 46.53070 | 26.90673 | 620 ft | 67 kts | 165° |
| 2026-04-10 21:56 | 46.52387 | 26.90942 | 630 ft | 132 kts | 163° |
| 2026-04-10 21:57 | 46.51452 | 26.91301 | 1052 ft | 135 kts | 191° |
| 2026-04-10 21:57 | 46.50611 | 26.90429 | 1272 ft | 178 kts | 225° |
| 2026-04-10 21:57 | 46.49983 | 26.89512 | 1386 ft | 199 kts | 226° |
| 2026-04-10 21:57 | 46.49031 | 26.88055 | 2067 ft | 195 kts | 229° |
| 2026-04-10 21:58 | 46.48115 | 26.86508 | 2394 ft | 215 kts | 232° |
| 2026-04-10 21:58 | 46.47198 | 26.84716 | 2616 ft | 228 kts | 235° |
| 2026-04-10 21:58 | 46.46280 | 26.82760 | 2702 ft | 241 kts | 237° |
| 2026-04-10 21:58 | 46.45371 | 26.80692 | 2894 ft | 243 kts | 239° |
| 2026-04-10 21:59 | 46.44492 | 26.78575 | 3002 ft | 249 kts | 240° |
| 2026-04-10 21:59 | 46.43639 | 26.76362 | 3012 ft | 254 kts | 245° |
| 2026-04-10 21:59 | 46.43137 | 26.73900 | 3009 ft | 256 kts | 257° |
| 2026-04-10 21:59 | 46.42659 | 26.71437 | 3011 ft | 258 kts | 254° |
| 2026-04-10 22:00 | 46.42158 | 26.68937 | 3094 ft | 255 kts | 255° |
| 2026-04-10 22:00 | 46.41683 | 26.66514 | 3464 ft | 247 kts | 255° |
| 2026-04-10 22:00 | 46.41205 | 26.64152 | 3835 ft | 242 kts | 254° |
| 2026-04-10 22:00 | 46.40723 | 26.61800 | 3996 ft | 248 kts | 254° |
| 2026-04-10 22:01 | 46.40205 | 26.59376 | 3988 ft | 255 kts | 249° |
| 2026-04-10 22:01 | 46.39450 | 26.57033 | 3991 ft | 259 kts | 246° |
| 2026-04-10 22:01 | 46.38710 | 26.54644 | 3997 ft | 261 kts | 247° |
| 2026-04-10 22:01 | 46.37969 | 26.52215 | 3668 ft | 272 kts | 247° |
| 2026-04-10 22:02 | 46.37189 | 26.49655 | 2993 ft | 279 kts | 246° |
| 2026-04-10 22:02 | 46.36409 | 26.47097 | 2320 ft | 277 kts | 246° |
| 2026-04-10 22:02 | 46.35630 | 26.44572 | 2003 ft | 270 kts | 246° |
| 2026-04-10 22:02 | 46.34877 | 26.42132 | 2001 ft | 262 kts | 246° |
| 2026-04-10 22:03 | 46.33809 | 26.40052 | 2032 ft | 254 kts | 215° |
| 2026-04-10 22:03 | 46.32341 | 26.39183 | 2961 ft | 228 kts | 189° |
| 2026-04-10 22:03 | 46.30856 | 26.39762 | 3382 ft | 229 kts | 140° |
| 2026-04-10 22:03 | 46.30207 | 26.41917 | 3020 ft | 256 kts | 82° |
| 2026-04-10 22:04 | 46.31079 | 26.44156 | 2776 ft | 266 kts | 44° |
| 2026-04-10 22:04 | 46.32479 | 26.45977 | 2400 ft | 271 kts | 36° |
| 2026-04-10 22:04 | 46.34215 | 26.46786 | 2308 ft | 267 kts | 13° |
| 2026-04-10 22:04 | 46.36048 | 26.47493 | 1818 ft | 273 kts | 12° |
| 2026-04-10 22:05 | 46.37891 | 26.47760 | 1923 ft | 257 kts | 19° |
| 2026-04-10 22:05 | 46.39381 | 26.49007 | 2175 ft | 251 kts | 17° |
| 2026-04-10 22:05 | 46.41104 | 26.48801 | 1993 ft | 257 kts | 335° |
| 2026-04-10 22:05 | 46.42626 | 26.47463 | 1962 ft | 249 kts | 307° |
| 2026-04-10 22:06 | 46.43153 | 26.45150 | 2270 ft | 245 kts | 268° |
| 2026-04-10 22:06 | 46.42504 | 26.42952 | 2289 ft | 247 kts | 206° |
| 2026-04-10 22:06 | 46.41112 | 26.43532 | 2931 ft | 226 kts | 104° |
| 2026-04-10 22:06 | 46.41940 | 26.45277 | 1969 ft | 272 kts | 8° |
| 2026-04-10 22:07 | 46.43808 | 26.45453 | 1948 ft | 253 kts | 349° |
| 2026-04-10 22:07 | 46.45430 | 26.45216 | 2716 ft | 222 kts | 27° |
| 2026-04-10 22:07 | 46.45725 | 26.46707 | 4419 ft | 157 kts | 135° |
| 2026-04-10 22:08 | 46.43079 | 26.46422 | 2280 ft | 278 kts | 227° |
| 2026-04-10 22:08 | 46.42104 | 26.44196 | 2724 ft | 253 kts | 249° |
| 2026-04-10 22:08 | 46.41825 | 26.41668 | 2496 ft | 263 kts | 273° |
| 2026-04-10 22:08 | 46.42422 | 26.39230 | 2680 ft | 250 kts | 301° |
| 2026-04-10 22:09 | 46.43527 | 26.37219 | 2346 ft | 265 kts | 324° |
| 2026-04-10 22:09 | 46.45147 | 26.36221 | 2734 ft | 252 kts | 353° |
| 2026-04-10 22:09 | 46.46768 | 26.37016 | 2655 ft | 259 kts | 49° |
| 2026-04-10 22:09 | 46.47321 | 26.39266 | 3125 ft | 243 kts | 108° |
| 2026-04-10 22:10 | 46.46195 | 26.41011 | 2945 ft | 260 kts | 146° |
| 2026-04-10 22:10 | 46.44520 | 26.42323 | 2136 ft | 278 kts | 156° |
| 2026-04-10 22:10 | 46.42820 | 26.43546 | 2004 ft | 270 kts | 141° |
| 2026-04-10 22:10 | 46.42064 | 26.45911 | 1959 ft | 262 kts | 94° |
| 2026-04-10 22:11 | 46.41259 | 26.48093 | 2055 ft | 254 kts | 144° |
| 2026-04-10 22:11 | 46.39672 | 26.49280 | 1747 ft | 266 kts | 160° |
| 2026-04-10 22:11 | 46.37879 | 26.50123 | 1226 ft | 268 kts | 166° |
| 2026-04-10 22:11 | 46.36298 | 26.50660 | 2194 ft | 230 kts | 186° |
| 2026-04-10 22:12 | 46.35304 | 26.49213 | 2865 ft | 214 kts | 264° |
| 2026-04-10 22:12 | 46.35481 | 26.46913 | 2233 ft | 255 kts | 280° |
| 2026-04-10 22:12 | 46.35599 | 26.44256 | 1716 ft | 267 kts | 259° |
| 2026-04-10 22:12 | 46.34855 | 26.41918 | 1940 ft | 256 kts | 234° |
| 2026-04-10 22:13 | 46.33787 | 26.39968 | 2031 ft | 255 kts | 235° |
| 2026-04-10 22:13 | 46.32969 | 26.37620 | 1797 ft | 259 kts | 250° |
| 2026-04-10 22:13 | 46.32511 | 26.35139 | 1823 ft | 255 kts | 275° |
| 2026-04-10 22:13 | 46.33407 | 26.33384 | 3030 ft | 217 kts | 316° |
| 2026-04-10 22:14 | 46.34535 | 26.32073 | 3784 ft | 204 kts | 318° |
| 2026-04-10 22:14 | 46.35731 | 26.31185 | 4474 ft | 196 kts | 343° |
| 2026-04-10 22:14 | 46.37070 | 26.31802 | 4521 ft | 222 kts | 33° |
| 2026-04-10 22:14 | 46.38134 | 26.33527 | 4420 ft | 241 kts | 82° |
| 2026-04-10 22:15 | 46.38167 | 26.36065 | 3571 ft | 277 kts | 97° |
| 2026-04-10 22:15 | 46.37486 | 26.38670 | 3350 ft | 267 kts | 122° |
| 2026-04-10 22:15 | 46.36237 | 26.40709 | 2803 ft | 277 kts | 133° |
| 2026-04-10 22:15 | 46.35521 | 26.43269 | 1769 ft | 281 kts | 91° |
| 2026-04-10 22:16 | 46.35983 | 26.45891 | 1675 ft | 269 kts | 71° |
| 2026-04-10 22:16 | 46.37282 | 26.47633 | 1644 ft | 254 kts | 72° |
| 2026-04-10 22:16 | 46.36570 | 26.49856 | 1250 ft | 243 kts | 111° |
| 2026-04-10 22:16 | 46.36165 | 26.52086 | 1923 ft | 218 kts | 74° |
| 2026-04-10 22:17 | 46.36945 | 26.53699 | 2823 ft | 201 kts | 357° |
| 2026-04-10 22:17 | 46.37027 | 26.51724 | 1449 ft | 265 kts | 252° |
| 2026-04-10 22:17 | 46.36759 | 26.50486 | 1099 ft | 0 kts | 232° |
| 2026-04-10 22:17 | 46.36521 | 26.50028 | 2732 ft | 163 kts | 233° |
| 2026-04-10 22:18 | 46.35699 | 26.48263 | 2149 ft | 228 kts | 256° |
| 2026-04-10 22:18 | 46.36608 | 26.48179 | 1496 ft | 250 kts | 46° |
| 2026-04-10 22:18 | 46.37795 | 26.48586 | 1988 ft | 190 kts | 295° |
| 2026-04-10 22:18 | 46.36873 | 26.47950 | 1814 ft | 238 kts | 143° |
| 2026-04-10 22:19 | 46.36991 | 26.49612 | 1115 ft | 5 kts | 279° |
| 2026-04-10 22:19 | 46.36991 | 26.49613 | 1115 ft | 0 kts | 293° |
| 2026-04-10 22:19 | 46.37390 | 26.48174 | 3052 ft | 183 kts | 290° |
| 2026-04-10 22:19 | 46.37435 | 26.46392 | 2923 ft | 196 kts | 179° |
| 2026-04-10 22:20 | 46.36849 | 26.48316 | 3277 ft | 180 kts | 96° |
| 2026-04-10 22:20 | 46.36848 | 26.49434 | 4359 ft | 168 kts | 89° |
| 2026-04-10 22:22 | 46.37040 | 26.50594 | 3594 ft | 221 kts | 43° |
| 2026-04-10 22:22 | 46.38643 | 26.50522 | 3023 ft | 255 kts | 331° |
| 2026-04-10 22:22 | 46.38722 | 26.48747 | 3036 ft | 248 kts | 186° |
| 2026-04-10 22:22 | 46.37289 | 26.48141 | 1384 ft | 149 kts | 262° |
| 2026-04-10 22:23 | 46.37729 | 26.47939 | 3276 ft | 141 kts | 75° |
| 2026-04-10 22:23 | 46.38088 | 26.48137 | 3328 ft | 133 kts | 297° |
| 2026-04-10 22:23 | 46.38990 | 26.47215 | 3323 ft | 184 kts | 329° |
| 2026-04-10 22:23 | 46.40233 | 26.46234 | 3329 ft | 220 kts | 332° |
| 2026-04-10 22:24 | 46.41629 | 26.45098 | 3203 ft | 243 kts | 320° |
| 2026-04-10 22:24 | 46.42680 | 26.43560 | 3346 ft | 239 kts | 21° |
| 2026-04-10 22:24 | 46.42637 | 26.45422 | 3201 ft | 246 kts | 151° |
| 2026-04-10 22:24 | 46.41264 | 26.47105 | 2642 ft | 269 kts | 129° |
| 2026-04-10 22:25 | 46.40230 | 26.49260 | 3022 ft | 251 kts | 124° |
| 2026-04-10 22:25 | 46.38919 | 26.50795 | 3115 ft | 253 kts | 164° |
| 2026-04-10 22:25 | 46.37134 | 26.50689 | 2979 ft | 257 kts | 202° |
| 2026-04-10 22:25 | 46.35830 | 26.49135 | 3522 ft | 242 kts | 237° |
| 2026-04-10 22:26 | 46.35220 | 26.46775 | 2568 ft | 276 kts | 284° |
| 2026-04-10 22:26 | 46.36823 | 26.46066 | 1872 ft | 267 kts | 14° |
| 2026-04-10 22:26 | 46.37489 | 26.46945 | 3234 ft | 147 kts | 43° |
| 2026-04-10 22:26 | 46.38433 | 26.48209 | 3018 ft | 207 kts | 39° |
| 2026-04-10 22:27 | 46.39836 | 26.49044 | 2934 ft | 235 kts | 4° |
| 2026-04-10 22:27 | 46.41392 | 26.48230 | 2736 ft | 251 kts | 311° |
| 2026-04-10 22:27 | 46.41639 | 26.45806 | 2525 ft | 258 kts | 246° |
| 2026-04-10 22:27 | 46.40162 | 26.44558 | 2603 ft | 257 kts | 189° |
| 2026-04-10 22:28 | 46.38352 | 26.44765 | 2253 ft | 268 kts | 173° |
| 2026-04-10 22:28 | 46.36741 | 26.45941 | 2127 ft | 266 kts | 130° |
| 2026-04-10 22:28 | 46.36173 | 26.48493 | 1696 ft | 271 kts | 90° |
| 2026-04-10 22:28 | 46.36747 | 26.50968 | 1570 ft | 249 kts | 26° |
| 2026-04-10 22:29 | 46.38180 | 26.50666 | 2792 ft | 210 kts | 311° |
| 2026-04-10 22:29 | 46.37855 | 26.48783 | 2134 ft | 249 kts | 233° |
| 2026-04-10 22:29 | 46.36728 | 26.46685 | 1515 ft | 266 kts | 233° |
| 2026-04-10 22:29 | 46.35683 | 26.44576 | 1704 ft | 248 kts | 236° |
| 2026-04-10 22:30 | 46.34865 | 26.42507 | 2312 ft | 225 kts | 247° |
| 2026-04-10 22:30 | 46.34144 | 26.40408 | 2332 ft | 243 kts | 240° |
| 2026-04-10 22:30 | 46.33359 | 26.38550 | 3219 ft | 220 kts | 238° |
| 2026-04-10 22:30 | 46.33508 | 26.36571 | 3378 ft | 221 kts | 356° |
| 2026-04-10 22:31 | 46.34624 | 26.37945 | 3567 ft | 236 kts | 54° |
| 2026-04-10 22:31 | 46.35537 | 26.40124 | 2831 ft | 267 kts | 62° |
| 2026-04-10 22:31 | 46.36235 | 26.42682 | 2186 ft | 276 kts | 78° |
| 2026-04-10 22:31 | 46.36559 | 26.45433 | 1426 ft | 273 kts | 84° |
| 2026-04-10 22:32 | 46.36678 | 26.48097 | 1687 ft | 247 kts | 90° |
| 2026-04-10 22:32 | 46.36568 | 26.50639 | 1399 ft | 262 kts | 101° |
| 2026-04-10 22:32 | 46.35577 | 26.52511 | 2065 ft | 233 kts | 147° |
| 2026-04-10 22:32 | 46.34073 | 26.53689 | 1827 ft | 252 kts | 155° |
| 2026-04-10 22:33 | 46.32426 | 26.54693 | 1671 ft | 257 kts | 161° |
| 2026-04-10 22:33 | 46.30882 | 26.55754 | 2197 ft | 227 kts | 129° |
| 2026-04-10 22:33 | 46.30048 | 26.57718 | 2223 ft | 244 kts | 122° |
| 2026-04-10 22:33 | 46.28816 | 26.59590 | 1434 ft | 271 kts | 139° |
| 2026-04-10 22:34 | 46.27728 | 26.61799 | 1070 ft | 268 kts | 121° |
| 2026-04-10 22:34 | 46.26785 | 26.63833 | 1352 ft | 238 kts | 176° |
| 2026-04-10 22:34 | 46.25670 | 26.65141 | 2029 ft | 209 kts | 87° |
| 2026-04-10 22:34 | 46.25801 | 26.67353 | 2092 ft | 231 kts | 86° |
| 2026-04-10 22:35 | 46.26388 | 26.69560 | 1787 ft | 248 kts | 53° |
| 2026-04-10 22:35 | 46.27451 | 26.71518 | 1767 ft | 253 kts | 53° |
| 2026-04-10 22:35 | 46.28448 | 26.73626 | 1994 ft | 246 kts | 57° |
| 2026-04-10 22:35 | 46.29430 | 26.75660 | 2129 ft | 238 kts | 49° |
| 2026-04-10 22:36 | 46.30560 | 26.77466 | 2132 ft | 255 kts | 49° |
| 2026-04-10 22:36 | 46.31678 | 26.79356 | 2573 ft | 237 kts | 51° |
| 2026-04-10 22:36 | 46.32697 | 26.81321 | 2734 ft | 243 kts | 55° |
| 2026-04-10 22:36 | 46.33662 | 26.83369 | 2753 ft | 250 kts | 53° |
| 2026-04-10 22:37 | 46.34696 | 26.85395 | 2956 ft | 245 kts | 53° |
| 2026-04-10 22:37 | 46.35717 | 26.87465 | 2727 ft | 257 kts | 56° |
| 2026-04-10 22:37 | 46.36773 | 26.89699 | 2471 ft | 239 kts | 54° |
| 2026-04-10 22:37 | 46.37629 | 26.90885 | 3060 ft | 146 kts | 28° |
| 2026-04-10 22:38 | 46.38540 | 26.91303 | 3104 ft | 135 kts | 14° |
| 2026-04-10 22:38 | 46.39435 | 26.91650 | 3020 ft | 137 kts | 15° |
| 2026-04-10 22:38 | 46.40350 | 26.92143 | 2787 ft | 141 kts | 12° |
| 2026-04-10 22:38 | 46.41284 | 26.92407 | 2715 ft | 136 kts | 14° |
| 2026-04-10 22:39 | 46.42147 | 26.92827 | 2567 ft | 139 kts | 21° |
| 2026-04-10 22:39 | 46.43022 | 26.93187 | 2628 ft | 127 kts | 5° |
| 2026-04-10 22:39 | 46.43935 | 26.93396 | 2317 ft | 144 kts | 6° |
| 2026-04-10 22:39 | 46.44933 | 26.93521 | 2126 ft | 141 kts | 360° |
| 2026-04-10 22:40 | 46.45907 | 26.93421 | 1845 ft | 142 kts | 353° |
| 2026-04-10 22:40 | 46.46824 | 26.93140 | 1739 ft | 136 kts | 344° |
| 2026-04-10 22:40 | 46.47729 | 26.92779 | 1538 ft | 135 kts | 342° |
| 2026-04-10 22:40 | 46.48638 | 26.92388 | 1150 ft | 133 kts | 344° |
| 2026-04-10 22:41 | 46.49366 | 26.92139 | 967 ft | 98 kts | 345° |
| 2026-04-10 22:41 | 46.50080 | 26.91836 | 826 ft | 113 kts | 344° |
| 2026-04-10 22:41 | 46.50859 | 26.91534 | 678 ft | 114 kts | 345° |
| 2026-04-10 22:41 | 46.51369 | 26.91338 | 610 ft | 31 kts | 345° |
| 2026-04-10 22:42 | 46.51397 | 26.91330 | 611 ft | 1 kts | 338° |